KTEX/TEX METAR and TAF weather

Enter ICAO airport designator
Station Type Date Time Source
KTEX METAR 2020/07/11 00:55 UTC NOAA

KTEX 110055Z AUTO 30008KT 260V330 10SM CLR 26/M13 A3055 RMK AO2


Station Type Date Time Source
KTEX Decoded METAR 2020/07/11 00:55 UTC NOAA

Telluride, Telluride Regional Airport, CO, United States (KTEX) 37-57-14N 107-54-31W
Jul 10, 2020 - 08:55 PM EDT / 2020.07.11 0055 UTC
Wind: from the WNW (300 degrees) at 9 MPH (8 KT) (direction variable):0
Visibility: 10 mile(s):0
Sky conditions: clear
Temperature: 78 F (26 C)
Dew Point: 8 F (-13 C)
Relative Humidity: 6%
Pressure (altimeter): 30.55 in. Hg (1034 hPa)
ob: KTEX 110055Z AUTO 30008KT 260V330 10SM CLR 26/M13 A3055 RMK AO2
cycle: 1

Station Type Date Time Source
KTEX TAF 2020/07/11 01:06 UTC NOAA

TAF
AMD KTEX 110104Z 1101/1124 28008KT P6SM FEW250
FM110300 13008KT P6SM FEW250
FM111200 VRB04KT P6SM SKC
FM111800 27007G17KT P6SM FEW200

Example: see airport list